createdAt,value
2018-03-29T00:01:23.158Z,65.05
2018-03-29T00:03:52.285Z,65.36
2018-03-29T00:06:21.390Z,65.31
2018-03-29T00:08:50.489Z,64.57
2018-03-29T00:11:19.609Z,64.56
2018-03-29T00:13:49.511Z,64.89
2018-03-29T00:16:19.397Z,65.35
2018-03-29T00:18:48.470Z,65.60
2018-03-29T00:21:17.608Z,64.19
2018-03-29T00:23:46.741Z,64.20
2018-03-29T00:26:15.842Z,65.04
2018-03-29T00:28:44.931Z,64.78
2018-03-29T00:31:14.053Z,64.47
2018-03-29T00:33:43.153Z,64.47
2018-03-29T00:36:12.284Z,63.49
2018-03-29T00:38:41.386Z,64.34
2018-03-29T00:41:10.490Z,64.54
2018-03-29T00:43:39.610Z,64.65
2018-03-29T00:46:08.780Z,64.94
2018-03-29T00:48:38.630Z,65.13
2018-03-29T00:51:07.803Z,64.32
2018-03-29T00:53:45.552Z,64.21
2018-03-29T00:56:14.668Z,64.58
2018-03-29T00:58:43.786Z,64.08
2018-03-29T01:01:12.920Z,63.91
2018-03-29T01:03:42.043Z,63.68
2018-03-29T01:06:11.156Z,63.19
2018-03-29T01:08:40.265Z,62.91
2018-03-29T01:11:10.421Z,62.85
2018-03-29T01:13:39.589Z,63.02
2018-03-29T01:16:10.701Z,62.53
2018-03-29T01:18:40.588Z,62.48
2018-03-29T01:21:11.261Z,62.61
2018-03-29T01:23:40.372Z,62.03
2018-03-29T01:26:11.200Z,62.17
2018-03-29T01:28:40.307Z,62.98
2018-03-29T01:31:11.207Z,62.31
2018-03-29T01:33:40.319Z,62.37
2018-03-29T01:36:12.170Z,61.87
2018-03-29T01:38:41.267Z,61.99
2018-03-29T01:41:11.353Z,61.67
2018-03-29T01:43:40.458Z,61.86
2018-03-29T01:46:11.337Z,61.77
2018-03-29T01:48:40.430Z,61.93
2018-03-29T01:51:10.466Z,62.34
2018-03-29T01:53:40.341Z,62.10
2018-03-29T01:56:11.243Z,62.60
2018-03-29T01:58:40.338Z,62.65
2018-03-29T02:01:11.305Z,62.96
2018-03-29T02:03:40.381Z,62.32
2018-03-29T02:06:11.231Z,62.87
2018-03-29T02:08:41.092Z,63.37
2018-03-29T02:11:11.491Z,63.07
2018-03-29T02:13:40.579Z,63.61
2018-03-29T02:16:10.528Z,63.62
2018-03-29T02:18:39.650Z,63.90
2018-03-29T02:21:08.742Z,63.72
2018-03-29T02:23:37.835Z,63.60
2018-03-29T02:26:07.727Z,63.67
2018-03-29T02:28:36.822Z,63.75
2018-03-29T02:31:05.915Z,63.27
2018-03-29T02:33:35.028Z,63.78
2018-03-29T02:36:04.923Z,63.03
2018-03-29T02:38:34.011Z,62.95
2018-03-29T02:41:03.131Z,62.96
2018-03-29T02:43:32.230Z,63.06
2018-03-29T02:46:02.115Z,62.93
2018-03-29T02:48:31.194Z,62.81
2018-03-29T02:51:00.320Z,62.85
2018-03-29T02:53:29.437Z,62.48
2018-03-29T02:55:59.294Z,62.69
2018-03-29T02:58:28.419Z,61.94
2018-03-29T03:00:57.523Z,62.75
2018-03-29T03:03:26.666Z,62.73
2018-03-29T03:05:55.781Z,63.10
2018-03-29T03:08:24.894Z,63.07
2018-03-29T03:10:53.988Z,63.50
2018-03-29T03:13:23.120Z,63.62
2018-03-29T03:15:52.984Z,63.79
2018-03-29T03:18:22.086Z,63.21
2018-03-29T03:20:51.936Z,63.49
2018-03-29T03:23:21.818Z,63.67
2018-03-29T03:25:50.901Z,63.55
2018-03-29T03:28:20.047Z,63.71
2018-03-29T03:30:49.141Z,63.97
2018-03-29T03:33:18.294Z,64.14
2018-03-29T03:35:48.131Z,63.95
2018-03-29T03:38:17.255Z,63.59
2018-03-29T03:40:47.179Z,63.71
2018-03-29T03:43:17.079Z,63.85
2018-03-29T03:45:46.176Z,64.22
2018-03-29T03:48:15.287Z,63.85
2018-03-29T03:50:45.137Z,64.05
2018-03-29T03:53:15.023Z,63.95
2018-03-29T03:55:44.886Z,63.89
2018-03-29T03:58:13.984Z,64.61
2018-03-29T04:00:43.110Z,64.01
2018-03-29T04:03:12.981Z,64.18
2018-03-29T04:05:42.881Z,64.01
2018-03-29T04:08:11.963Z,64.04
2018-03-29T04:10:41.052Z,63.96
2018-03-29T04:13:11.406Z,63.62
2018-03-29T04:15:40.495Z,63.28
2018-03-29T04:18:10.609Z,63.49
2018-03-29T04:20:39.701Z,63.21
2018-03-29T04:23:08.800Z,63.88
2018-03-29T04:25:37.891Z,62.96
2018-03-29T04:28:07.013Z,62.56
2018-03-29T04:30:36.949Z,62.50
2018-03-29T04:33:06.042Z,62.90
2018-03-29T04:35:35.158Z,62.92
2018-03-29T04:38:05.027Z,62.91
2018-03-29T04:40:34.152Z,62.76
2018-03-29T04:43:03.248Z,62.73
2018-03-29T04:45:32.373Z,62.85
2018-03-29T04:48:02.237Z,62.99
2018-03-29T04:50:31.343Z,63.29
2018-03-29T04:53:00.430Z,63.83
2018-03-29T04:55:29.582Z,63.69
2018-03-29T04:57:58.646Z,63.86
2018-03-29T05:00:27.766Z,63.92
2018-03-29T05:02:57.646Z,63.88
2018-03-29T05:05:26.754Z,64.38
2018-03-29T05:07:55.867Z,64.07
2018-03-29T05:10:25.783Z,64.13
2018-03-29T05:12:55.666Z,63.91
2018-03-29T05:15:24.771Z,63.03
2018-03-29T05:17:53.853Z,63.04
2018-03-29T05:20:22.969Z,63.40
2018-03-29T05:22:52.874Z,63.33
2018-03-29T05:25:21.979Z,63.27
2018-03-29T05:27:53.880Z,63.62
2018-03-29T05:30:22.971Z,63.61
2018-03-29T05:32:52.108Z,63.14
2018-03-29T05:35:21.197Z,63.12
2018-03-29T05:37:50.346Z,62.86
2018-03-29T05:40:19.405Z,62.73
2018-03-29T05:42:48.548Z,62.62
2018-03-29T05:45:17.663Z,62.65
2018-03-29T05:47:46.748Z,62.11
2018-03-29T05:50:15.860Z,62.30
2018-03-29T05:52:44.997Z,62.16
2018-03-29T05:55:14.099Z,62.37
2018-03-29T05:57:43.214Z,62.44
2018-03-29T06:00:13.226Z,62.10
2018-03-29T06:02:43.108Z,62.01
2018-03-29T06:05:12.207Z,61.60
2018-03-29T06:07:41.303Z,61.57
2018-03-29T06:10:11.520Z,61.37
2018-03-29T06:12:41.374Z,61.10
2018-03-29T06:15:16.378Z,61.23
2018-03-29T06:18:01.368Z,61.13
2018-03-29T06:20:30.456Z,60.80
2018-03-29T06:22:59.562Z,60.90
2018-03-29T06:25:29.446Z,60.97
2018-03-29T06:27:58.581Z,60.91
2018-03-29T06:30:28.446Z,60.75
2018-03-29T06:32:58.026Z,60.84
2018-03-29T06:35:27.130Z,60.70
2018-03-29T06:37:56.352Z,60.77
2018-03-29T06:40:25.450Z,60.08
2018-03-29T06:42:54.575Z,60.28
2018-03-29T06:45:23.677Z,59.92
2018-03-29T06:47:52.786Z,59.77
2018-03-29T06:50:22.696Z,60.00
2018-03-29T06:52:51.784Z,60.23
2018-03-29T06:55:21.699Z,60.12
2018-03-29T06:57:50.802Z,60.47
2018-03-29T07:00:20.661Z,60.24
2018-03-29T07:02:49.790Z,60.13
2018-03-29T07:05:18.895Z,59.89
2018-03-29T07:07:48.026Z,60.08
2018-03-29T07:10:17.107Z,59.92
2018-03-29T07:12:46.968Z,59.78
2018-03-29T07:15:16.059Z,59.42
2018-03-29T07:17:45.908Z,59.15
2018-03-29T07:20:15.031Z,59.06
2018-03-29T07:22:44.144Z,59.04
2018-03-29T07:25:13.264Z,58.48
2018-03-29T07:27:42.373Z,57.72
2018-03-29T07:30:11.531Z,57.39
2018-03-29T07:32:40.658Z,58.08
2018-03-29T07:35:11.023Z,57.77
2018-03-29T07:37:40.115Z,57.92
2018-03-29T07:40:11.235Z,57.01
2018-03-29T07:42:40.314Z,56.73
2018-03-29T07:45:09.527Z,56.66
2018-03-29T07:47:38.610Z,57.11
2018-03-29T07:50:07.734Z,56.93
2018-03-29T07:52:36.827Z,57.86
2018-03-29T07:55:06.024Z,57.57
2018-03-29T07:57:35.143Z,57.36
2018-03-29T08:00:04.287Z,57.59
2018-03-29T08:02:33.423Z,58.21
2018-03-29T08:05:03.332Z,58.38
2018-03-29T08:07:33.170Z,58.39
2018-03-29T08:10:02.272Z,58.63
2018-03-29T08:12:31.417Z,59.08
2018-03-29T08:15:00.538Z,59.25
2018-03-29T08:17:29.634Z,59.59
2018-03-29T08:19:58.747Z,58.80
2018-03-29T08:22:28.647Z,58.35
2018-03-29T08:24:57.755Z,59.25
2018-03-29T08:27:27.629Z,59.21
2018-03-29T08:29:56.730Z,58.74
2018-03-29T08:32:25.866Z,58.93
2018-03-29T08:34:55.779Z,58.98
2018-03-29T08:37:25.681Z,58.48
2018-03-29T08:39:54.805Z,58.67
2018-03-29T08:42:23.919Z,57.93
2018-03-29T08:44:53.031Z,58.65
2018-03-29T08:47:22.116Z,58.91
2018-03-29T08:49:51.231Z,57.28
2018-03-29T08:52:20.332Z,56.36
2018-03-29T08:54:49.443Z,56.44
2018-03-29T08:57:18.584Z,56.14
2018-03-29T08:59:47.709Z,55.47
2018-03-29T09:02:16.819Z,54.41
2018-03-29T09:04:45.924Z,55.19
2018-03-29T09:07:15.029Z,54.63
2018-03-29T09:09:44.139Z,54.98
2018-03-29T09:12:14.817Z,54.95
2018-03-29T09:14:43.935Z,55.32
2018-03-29T09:17:13.066Z,54.45
2018-03-29T09:19:42.797Z,50.87
2018-03-29T09:22:11.916Z,51.24
2018-03-29T09:24:41.021Z,51.08
2018-03-29T09:27:12.047Z,50.60
2018-03-29T09:29:41.904Z,52.29
2018-03-29T09:32:11.162Z,52.78
2018-03-29T09:34:41.039Z,52.38
2018-03-29T09:37:11.846Z,52.62
2018-03-29T09:39:40.969Z,51.88
2018-03-29T09:42:11.995Z,52.78
2018-03-29T09:44:41.334Z,54.16
2018-03-29T09:47:12.011Z,53.08
2018-03-29T09:49:41.107Z,53.42
2018-03-29T09:52:12.662Z,52.96
2018-03-29T09:54:42.545Z,52.60
2018-03-29T09:57:12.432Z,52.46
2018-03-29T09:59:42.339Z,52.67
2018-03-29T10:02:17.078Z,52.89
2018-03-29T10:04:52.921Z,53.11
2018-03-29T10:07:24.726Z,53.22
2018-03-29T10:09:53.843Z,54.19
2018-03-29T10:12:22.970Z,53.05
2018-03-29T10:14:52.092Z,52.47
2018-03-29T10:17:21.203Z,53.68
2018-03-29T10:19:50.346Z,52.86
2018-03-29T10:22:19.465Z,52.32
2018-03-29T10:24:48.603Z,52.79
2018-03-29T10:27:18.608Z,52.32
2018-03-29T10:29:47.775Z,51.54
2018-03-29T10:32:16.902Z,50.41
2018-03-29T10:34:46.011Z,50.71
2018-03-29T10:37:15.118Z,50.94
2018-03-29T10:39:44.827Z,49.70
2018-03-29T10:42:13.926Z,48.81
2018-03-29T10:44:44.119Z,49.59
2018-03-29T10:47:13.282Z,49.56
2018-03-29T10:49:42.449Z,49.86
2018-03-29T10:52:11.562Z,48.04
2018-03-29T10:54:41.468Z,48.07
2018-03-29T10:57:12.119Z,47.67
2018-03-29T10:59:42.033Z,47.66
2018-03-29T11:02:12.043Z,48.07
2018-03-29T11:04:42.057Z,47.81
2018-03-29T11:07:11.323Z,48.44
2018-03-29T11:09:40.415Z,48.81
2018-03-29T11:12:09.542Z,47.02
2018-03-29T11:14:38.646Z,47.31
2018-03-29T11:17:07.783Z,47.44
2018-03-29T11:19:36.887Z,47.24
2018-03-29T11:22:07.869Z,47.73
2018-03-29T11:24:36.973Z,46.71
2018-03-29T11:27:06.095Z,46.98
2018-03-29T11:29:36.004Z,48.82
2018-03-29T11:32:05.101Z,46.46
2018-03-29T11:34:34.983Z,46.34
2018-03-29T11:37:04.110Z,45.29
2018-03-29T11:39:34.003Z,44.89
2018-03-29T11:42:03.133Z,45.35
2018-03-29T11:44:32.243Z,45.57
2018-03-29T11:47:01.987Z,45.46
2018-03-29T11:49:31.115Z,46.01
2018-03-29T11:52:00.211Z,45.98
2018-03-29T11:54:29.332Z,46.29
2018-03-29T11:56:59.356Z,46.69
2018-03-29T11:59:29.559Z,46.46
2018-03-29T12:02:00.161Z,45.49
2018-03-29T12:04:30.497Z,45.82
2018-03-29T12:06:59.598Z,46.24
2018-03-29T12:09:28.718Z,46.57
2018-03-29T12:11:57.841Z,44.68
2018-03-29T12:14:26.983Z,44.14
2018-03-29T12:16:56.076Z,45.34
2018-03-29T12:19:25.789Z,45.96
2018-03-29T12:21:56.833Z,46.84
2018-03-29T12:24:26.711Z,46.57
2018-03-29T12:26:55.820Z,45.98
2018-03-29T12:29:24.931Z,45.37
2018-03-29T12:31:54.067Z,46.46
2018-03-29T12:34:23.238Z,46.51
2018-03-29T12:36:52.377Z,47.14
2018-03-29T12:39:21.507Z,46.98
2018-03-29T12:41:50.633Z,47.00
2018-03-29T12:44:20.556Z,48.07
2018-03-29T12:46:50.403Z,47.20
2018-03-29T12:49:19.553Z,46.71
2018-03-29T12:51:50.229Z,47.07
2018-03-29T12:54:19.355Z,46.34
2018-03-29T12:57:06.210Z,47.95
2018-03-29T12:59:36.088Z,47.79
2018-03-29T13:02:06.200Z,47.89
2018-03-29T13:04:35.314Z,47.77
2018-03-29T13:07:06.208Z,48.10
2018-03-29T13:09:36.216Z,48.61
2018-03-29T13:12:05.336Z,49.38
2018-03-29T13:14:34.460Z,48.35
2018-03-29T13:17:03.622Z,48.50
2018-03-29T13:19:32.717Z,48.64
2018-03-29T13:22:01.830Z,48.02
2018-03-29T13:24:30.947Z,47.34
2018-03-29T13:27:00.070Z,49.13
2018-03-29T13:29:29.211Z,48.09
2018-03-29T13:31:58.340Z,48.64
2018-03-29T13:34:27.467Z,48.53
2018-03-29T13:36:57.336Z,48.79
2018-03-29T13:39:26.483Z,48.67
2018-03-29T13:41:55.593Z,49.36
2018-03-29T13:44:24.734Z,49.70
2018-03-29T13:46:53.862Z,49.29
2018-03-29T13:49:24.460Z,50.01
2018-03-29T13:51:53.564Z,50.49
2018-03-29T13:54:22.761Z,49.70
2018-03-29T13:56:51.896Z,50.38
2018-03-29T13:59:21.094Z,49.59
2018-03-29T14:01:50.165Z,50.69
2018-03-29T14:04:19.290Z,49.49
2018-03-29T14:06:48.451Z,48.43
2018-03-29T14:09:18.334Z,48.53
2018-03-29T14:11:47.472Z,47.62
2018-03-29T14:14:17.366Z,48.35
2018-03-29T14:16:46.482Z,47.81
2018-03-29T14:19:16.393Z,47.48
2018-03-29T14:21:45.528Z,47.74
2018-03-29T14:24:14.633Z,46.65
2018-03-29T14:26:43.747Z,46.68
2018-03-29T14:29:12.900Z,47.10
2018-03-29T14:31:42.038Z,46.87
2018-03-29T14:34:12.473Z,46.97
2018-03-29T14:36:41.611Z,47.45
2018-03-29T14:39:11.635Z,47.44
2018-03-29T14:41:40.767Z,46.59
2018-03-29T14:44:09.907Z,47.48
2018-03-29T14:46:39.858Z,46.31
2018-03-29T14:49:08.965Z,46.37
2018-03-29T14:51:38.874Z,46.90
2018-03-29T14:54:07.999Z,46.98
2018-03-29T14:56:37.097Z,48.01
2018-03-29T14:59:06.241Z,47.71
2018-03-29T15:01:35.367Z,48.06
2018-03-29T15:04:04.555Z,47.91
2018-03-29T15:06:33.659Z,46.72
2018-03-29T15:09:02.824Z,46.67
2018-03-29T15:11:31.889Z,46.88
2018-03-29T15:14:00.993Z,46.23
2018-03-29T15:16:30.119Z,46.05
2018-03-29T15:18:59.990Z,44.15
2018-03-29T15:21:29.126Z,43.01
2018-03-29T15:23:58.993Z,42.09
2018-03-29T15:26:28.139Z,40.29
2018-03-29T15:28:57.240Z,39.94
2018-03-29T15:31:26.375Z,39.86
2018-03-29T15:33:55.482Z,40.36
2018-03-29T15:36:24.591Z,40.18
2018-03-29T15:38:53.736Z,38.39
2018-03-29T15:41:22.888Z,37.02
2018-03-29T15:43:52.031Z,37.01
2018-03-29T15:46:21.156Z,36.73
2018-03-29T15:48:50.307Z,37.93
2018-03-29T15:51:20.194Z,37.61
2018-03-29T15:53:49.341Z,39.38
2018-03-29T15:56:19.243Z,40.82
2018-03-29T15:58:49.143Z,41.83
2018-03-29T16:01:19.012Z,42.44
2018-03-29T16:03:48.151Z,41.74
2018-03-29T16:06:18.046Z,42.01
2018-03-29T16:08:47.209Z,42.48
2018-03-29T16:11:17.082Z,41.96
2018-03-29T16:13:46.210Z,39.55
2018-03-29T16:16:15.349Z,34.20
2018-03-29T16:18:44.474Z,34.71
2018-03-29T16:21:13.572Z,36.51
2018-03-29T16:23:42.700Z,36.04
2018-03-29T16:26:12.651Z,33.36
2018-03-29T16:28:41.803Z,30.26
2018-03-29T16:31:11.930Z,29.00
2018-03-29T16:33:41.091Z,29.88
2018-03-29T16:36:10.207Z,31.34
2018-03-29T16:38:39.352Z,34.54
2018-03-29T16:41:08.470Z,35.08
2018-03-29T16:43:37.566Z,36.10
2018-03-29T16:46:07.485Z,38.27
2018-03-29T16:48:36.617Z,39.54
2018-03-29T16:51:05.733Z,40.99
2018-03-29T16:53:34.861Z,42.16
2018-03-29T16:56:03.986Z,43.29
2018-03-29T16:58:33.893Z,43.75
2018-03-29T17:01:03.762Z,44.29
2018-03-29T17:03:32.883Z,44.39
2018-03-29T17:06:02.056Z,44.61
2018-03-29T17:08:31.152Z,45.03
2018-03-29T17:11:00.274Z,45.33
2018-03-29T17:13:29.359Z,46.22
2018-03-29T17:15:58.454Z,46.05
2018-03-29T17:18:27.608Z,46.29
2018-03-29T17:20:56.746Z,46.13
2018-03-29T17:23:25.871Z,45.95
2018-03-29T17:25:55.765Z,46.25
2018-03-29T17:28:24.901Z,46.31
2018-03-29T17:30:54.767Z,46.54
2018-03-29T17:33:23.896Z,47.19
2018-03-29T17:35:53.755Z,48.00
2018-03-29T17:38:22.884Z,48.34
2018-03-29T17:40:53.562Z,48.86
2018-03-29T17:43:22.720Z,48.75
2018-03-29T17:45:51.827Z,48.95
2018-03-29T17:48:21.733Z,49.11
2018-03-29T17:50:50.887Z,49.20
2018-03-29T17:53:19.989Z,48.91
2018-03-29T17:55:49.889Z,49.19
2018-03-29T17:58:19.767Z,48.99
2018-03-29T18:00:49.684Z,49.25
2018-03-29T18:03:18.779Z,49.48
2018-03-29T18:05:48.651Z,49.36
2018-03-29T18:08:17.771Z,49.62
2018-03-29T18:10:46.915Z,49.95
2018-03-29T18:13:16.027Z,49.90
2018-03-29T18:15:45.137Z,49.94
2018-03-29T18:18:14.256Z,50.01
2018-03-29T18:20:43.352Z,50.05
2018-03-29T18:23:12.500Z,49.81
2018-03-29T18:25:41.627Z,50.37
2018-03-29T18:28:12.021Z,50.49
2018-03-29T18:30:41.128Z,50.16
2018-03-29T18:33:10.330Z,51.37
2018-03-29T18:35:40.036Z,52.04
2018-03-29T18:38:09.193Z,52.32
2018-03-29T18:40:38.302Z,53.47
2018-03-29T18:43:08.197Z,53.87
2018-03-29T18:45:37.335Z,54.65
2018-03-29T18:48:06.480Z,54.66
2018-03-29T18:50:35.646Z,54.14
2018-03-29T18:53:04.790Z,54.23
2018-03-29T18:55:33.926Z,54.74
2018-03-29T18:58:03.050Z,54.49
2018-03-29T19:00:32.175Z,54.00
2018-03-29T19:03:01.323Z,53.61
2018-03-29T19:05:30.473Z,53.63
2018-03-29T19:07:59.633Z,54.40
2018-03-29T19:10:28.803Z,55.11
2018-03-29T19:12:57.920Z,55.34
2018-03-29T19:15:27.069Z,56.40
2018-03-29T19:17:57.000Z,57.01
2018-03-29T19:20:26.913Z,57.16
2018-03-29T19:22:56.782Z,57.60
2018-03-29T19:25:25.913Z,57.42
2018-03-29T19:27:55.820Z,57.94
2018-03-29T19:30:24.953Z,58.53
2018-03-29T19:32:54.099Z,58.90
2018-03-29T19:35:23.182Z,58.53
2018-03-29T19:37:52.301Z,58.61
2018-03-29T19:40:21.432Z,59.45
2018-03-29T19:42:50.558Z,59.44
2018-03-29T19:45:20.421Z,59.45
2018-03-29T19:47:49.553Z,59.73
2018-03-29T19:50:18.687Z,60.14
2018-03-29T19:52:47.791Z,60.44
2018-03-29T19:55:16.919Z,60.10
2018-03-29T19:57:46.771Z,60.80
2018-03-29T20:00:15.899Z,61.21
2018-03-29T20:02:44.987Z,60.82
2018-03-29T20:05:14.092Z,61.29
2018-03-29T20:07:43.234Z,61.66
2018-03-29T20:10:12.393Z,61.59
2018-03-29T20:12:41.494Z,61.63
2018-03-29T20:15:12.643Z,61.80
2018-03-29T20:17:41.791Z,61.39
2018-03-29T20:20:15.971Z,61.66
2018-03-29T20:22:45.126Z,62.23
2018-03-29T20:25:14.235Z,62.63
2018-03-29T20:27:43.506Z,62.85
2018-03-29T20:30:12.658Z,62.60
2018-03-29T20:32:41.811Z,62.45
2018-03-29T20:35:12.952Z,62.65
2018-03-29T20:37:42.085Z,62.33
2018-03-29T20:40:12.444Z,61.66
2018-03-29T20:42:41.557Z,61.27
2018-03-29T20:45:10.710Z,61.19
2018-03-29T20:47:39.817Z,62.02
2018-03-29T20:50:08.952Z,62.57
2018-03-29T20:52:38.079Z,61.99
2018-03-29T20:55:07.196Z,62.88
2018-03-29T20:57:36.386Z,62.57
2018-03-29T21:00:05.491Z,63.04
2018-03-29T21:02:35.391Z,63.33
2018-03-29T21:05:05.288Z,62.85
2018-03-29T21:07:34.424Z,62.65
2018-03-29T21:10:03.538Z,62.52
2018-03-29T21:12:32.690Z,62.94
2018-03-29T21:15:02.584Z,62.61
2018-03-29T21:17:31.704Z,63.42
2018-03-29T21:20:00.793Z,63.04
2018-03-29T21:22:29.922Z,63.37
2018-03-29T21:24:59.063Z,63.38
2018-03-29T21:27:28.192Z,63.70
2018-03-29T21:29:58.098Z,63.45
2018-03-29T21:32:28.045Z,63.58
2018-03-29T21:34:57.911Z,64.32
2018-03-29T21:37:27.031Z,63.93
2018-03-29T21:39:56.182Z,64.23
2018-03-29T21:42:25.390Z,63.94
2018-03-29T21:44:54.444Z,63.73
2018-03-29T21:47:24.392Z,63.42
2018-03-29T21:49:54.258Z,62.67
2018-03-29T21:52:23.409Z,62.67
2018-03-29T21:54:52.563Z,62.77
2018-03-29T21:57:22.428Z,62.49
2018-03-29T21:59:51.570Z,62.86
2018-03-29T22:02:20.667Z,62.68
2018-03-29T22:04:50.592Z,63.26
2018-03-29T22:07:19.671Z,63.03
2018-03-29T22:09:48.998Z,62.79
2018-03-29T22:12:18.136Z,63.34
2018-03-29T22:14:47.251Z,63.97
2018-03-29T22:17:16.443Z,64.11
2018-03-29T22:19:45.557Z,63.96
2018-03-29T22:22:15.474Z,65.00
2018-03-29T22:24:45.382Z,65.01
2018-03-29T22:27:14.481Z,64.67
2018-03-29T22:29:44.370Z,64.97
2018-03-29T22:32:13.504Z,64.67
2018-03-29T22:34:42.578Z,65.29
2018-03-29T22:37:12.630Z,65.42
2018-03-29T22:39:41.789Z,65.38
2018-03-29T22:42:10.916Z,65.21
2018-03-29T22:44:40.054Z,64.95
2018-03-29T22:47:09.290Z,65.04
2018-03-29T22:49:38.477Z,64.79
2018-03-29T22:52:07.584Z,64.20
2018-03-29T22:54:36.704Z,64.72
2018-03-29T22:57:05.810Z,65.40
2018-03-29T22:59:34.938Z,64.97
2018-03-29T23:02:04.065Z,65.65
2018-03-29T23:04:33.870Z,65.89
2018-03-29T23:07:03.000Z,66.02
2018-03-29T23:09:32.880Z,65.97
2018-03-29T23:14:37.944Z,66.18
2018-03-29T23:17:07.061Z,65.74
2018-03-29T23:19:36.963Z,65.40
2018-03-29T23:22:06.854Z,64.97
2018-03-29T23:24:35.958Z,65.68
2018-03-29T23:27:05.084Z,65.41
2018-03-29T23:29:34.940Z,65.55
2018-03-29T23:32:04.070Z,65.49
2018-03-29T23:34:33.182Z,65.83
2018-03-29T23:37:03.082Z,66.29
2018-03-29T23:39:32.207Z,65.80
2018-03-29T23:42:02.083Z,65.50
2018-03-29T23:44:31.186Z,65.40
2018-03-29T23:47:00.323Z,65.89
2018-03-29T23:49:29.438Z,65.90
2018-03-29T23:51:59.321Z,65.77
2018-03-29T23:54:29.203Z,66.32
2018-03-29T23:56:58.300Z,65.23
2018-03-29T23:59:27.430Z,65.06
